createdAt,value
2018-10-17T00:01:51.413Z,38.50
2018-10-17T00:04:19.275Z,38.30
2018-10-17T00:06:48.784Z,38.30
2018-10-17T00:09:16.970Z,38.30
2018-10-17T00:11:59.273Z,38.40
2018-10-17T00:14:28.796Z,38.50
2018-10-17T00:16:59.628Z,38.50
2018-10-17T00:19:27.686Z,38.50
2018-10-17T00:21:56.600Z,38.40
2018-10-17T00:24:27.917Z,38.70
2018-10-17T00:26:56.976Z,38.50
2018-10-17T00:29:25.429Z,38.40
2018-10-17T00:34:48.117Z,38.50
2018-10-17T00:37:16.450Z,38.60
2018-10-17T00:39:46.371Z,38.60
2018-10-17T00:42:14.491Z,38.60
2018-10-17T00:44:43.007Z,38.50
2018-10-17T00:47:12.246Z,38.20
2018-10-17T00:49:40.960Z,38.30
2018-10-17T00:52:09.056Z,38.40
2018-10-17T00:54:39.013Z,38.20
2018-10-17T00:57:07.845Z,38.20
2018-10-17T00:59:35.848Z,38.00
2018-10-17T01:02:04.593Z,37.90
2018-10-17T01:04:33.754Z,37.80
2018-10-17T01:07:02.253Z,38.10
2018-10-17T01:09:30.339Z,37.90
2018-10-17T01:11:58.440Z,37.80
2018-10-17T01:14:26.945Z,37.80
2018-10-17T01:16:54.915Z,38.00
2018-10-17T01:19:22.936Z,39.10
2018-10-17T01:21:51.075Z,39.60
2018-10-17T01:24:19.895Z,39.50
2018-10-17T01:26:47.926Z,39.60
2018-10-17T01:29:16.486Z,39.60
2018-10-17T01:31:45.146Z,39.40
2018-10-17T01:34:13.130Z,39.20
2018-10-17T01:36:41.108Z,40.10
2018-10-17T01:39:16.200Z,38.90
2018-10-17T01:41:44.482Z,38.90
2018-10-17T01:44:12.245Z,39.10
2018-10-17T01:46:40.138Z,39.10
2018-10-17T01:49:08.461Z,39.40
2018-10-17T01:51:37.235Z,39.50
2018-10-17T01:54:15.712Z,40.20
2018-10-17T01:56:46.504Z,39.40
2018-10-17T01:59:15.415Z,39.50
2018-10-17T02:01:43.433Z,39.50
2018-10-17T02:04:11.136Z,39.40
2018-10-17T02:06:39.124Z,39.10
2018-10-17T02:09:08.938Z,39.00
2018-10-17T02:11:37.454Z,39.40
2018-10-17T02:14:07.324Z,39.40
2018-10-17T02:16:35.339Z,39.40
2018-10-17T02:19:04.790Z,39.40
2018-10-17T02:21:33.538Z,39.30
2018-10-17T02:24:02.799Z,39.30
2018-10-17T02:26:30.747Z,39.40
2018-10-17T02:28:58.569Z,39.30
2018-10-17T02:36:45.776Z,39.20
2018-10-17T02:39:14.278Z,39.10
2018-10-17T02:41:42.327Z,39.10
2018-10-17T02:44:20.282Z,39.10
2018-10-17T02:46:48.296Z,39.10
2018-10-17T02:49:17.174Z,39.20
2018-10-17T02:51:46.284Z,39.20
2018-10-17T02:54:14.835Z,39.40
2018-10-17T02:56:49.523Z,39.60
2018-10-17T02:59:17.571Z,39.90
2018-10-17T03:02:07.865Z,40.20
2018-10-17T03:04:38.746Z,40.40
2018-10-17T03:07:07.734Z,40.40
2018-10-17T03:09:36.437Z,41.00
2018-10-17T03:12:19.384Z,40.80
2018-10-17T03:14:48.406Z,40.90
2018-10-17T03:23:16.163Z,40.90
2018-10-17T03:25:44.021Z,40.90
2018-10-17T03:28:12.380Z,40.70
2018-10-17T03:30:49.590Z,40.70
2018-10-17T03:33:18.111Z,40.80
2018-10-17T03:35:46.997Z,40.60
2018-10-17T03:38:26.812Z,40.50
2018-10-17T03:41:00.431Z,40.30
2018-10-17T03:43:28.471Z,40.20
2018-10-17T03:46:15.337Z,40.20
2018-10-17T03:48:43.389Z,40.20
2018-10-17T03:51:24.641Z,40.00
2018-10-17T03:53:53.262Z,40.20
2018-10-17T03:56:21.833Z,40.70
2018-10-17T04:04:36.692Z,40.80
2018-10-17T04:07:05.071Z,40.80
2018-10-17T04:09:36.024Z,40.80
2018-10-17T04:14:39.077Z,40.30
2018-10-17T04:17:07.695Z,40.40
2018-10-17T04:19:36.480Z,40.50
2018-10-17T04:22:04.926Z,40.20
2018-10-17T04:24:34.575Z,40.20
2018-10-17T04:27:02.829Z,40.30
2018-10-17T04:29:31.628Z,40.70
2018-10-17T04:32:14.096Z,40.90
2018-10-17T04:34:42.269Z,40.70
2018-10-17T04:37:10.790Z,40.80
2018-10-17T04:39:40.188Z,41.10
2018-10-17T04:45:08.176Z,41.10
2018-10-17T04:47:41.495Z,41.20
2018-10-17T04:52:57.591Z,41.10
2018-10-17T04:55:26.261Z,41.20
2018-10-17T04:57:55.299Z,41.10
2018-10-17T05:00:23.755Z,41.00
2018-10-17T05:02:58.838Z,41.20
2018-10-17T05:05:28.695Z,42.00
2018-10-17T05:08:02.171Z,41.40
2018-10-17T05:10:38.232Z,41.00
2018-10-17T05:13:07.009Z,40.90
2018-10-17T05:15:42.219Z,41.20
2018-10-17T05:18:09.956Z,41.70
2018-10-17T05:20:38.608Z,41.60
2018-10-17T05:23:31.105Z,41.80
2018-10-17T05:25:59.418Z,41.70
2018-10-17T05:28:29.628Z,41.50
2018-10-17T05:31:00.082Z,41.10
2018-10-17T05:33:28.451Z,41.00
2018-10-17T05:38:46.359Z,40.50
2018-10-17T05:41:14.908Z,40.40
2018-10-17T05:43:42.907Z,40.50
2018-10-17T05:49:13.629Z,40.70
2018-10-17T05:51:41.317Z,40.40
2018-10-17T05:57:11.965Z,40.80
2018-10-17T05:59:48.551Z,41.10
2018-10-17T06:02:22.882Z,41.20
2018-10-17T06:04:51.234Z,41.00
2018-10-17T06:07:20.313Z,41.30
2018-10-17T06:09:48.396Z,41.50
2018-10-17T06:12:23.597Z,41.20
2018-10-17T06:14:51.727Z,41.20
2018-10-17T06:17:28.264Z,41.00
2018-10-17T06:19:57.048Z,41.20
2018-10-17T06:22:36.376Z,41.70
2018-10-17T06:25:06.276Z,41.80
2018-10-17T06:33:14.225Z,42.20
2018-10-17T06:38:29.008Z,42.80
2018-10-17T06:40:57.652Z,43.10
2018-10-17T06:43:25.780Z,43.00
2018-10-17T06:45:55.421Z,42.90
2018-10-17T06:48:23.124Z,43.20
2018-10-17T06:50:50.849Z,43.50
2018-10-17T06:53:18.687Z,43.70
2018-10-17T06:55:46.474Z,44.30
2018-10-17T06:58:14.444Z,44.50
2018-10-17T07:00:42.300Z,44.40
2018-10-17T07:03:10.512Z,44.50
2018-10-17T07:05:38.513Z,44.30
2018-10-17T07:08:06.364Z,44.40
2018-10-17T07:10:34.303Z,44.40
2018-10-17T07:13:03.013Z,44.80
2018-10-17T07:15:32.684Z,44.50
2018-10-17T07:18:03.564Z,44.30
2018-10-17T07:20:37.260Z,44.40
2018-10-17T07:23:05.295Z,44.50
2018-10-17T07:25:34.068Z,44.30
2018-10-17T07:28:03.117Z,44.40
2018-10-17T07:30:32.280Z,44.80
2018-10-17T07:33:01.933Z,44.60
2018-10-17T07:35:29.978Z,44.80
2018-10-17T07:37:58.435Z,45.00
2018-10-17T07:40:26.427Z,45.00
2018-10-17T07:42:54.394Z,44.70
2018-10-17T07:45:22.307Z,44.90
2018-10-17T07:47:51.508Z,45.00
2018-10-17T07:50:19.491Z,44.50
2018-10-17T07:52:55.161Z,44.50
2018-10-17T07:55:23.239Z,44.50
2018-10-17T07:57:51.224Z,44.20
2018-10-17T08:00:19.466Z,44.30
2018-10-17T08:02:47.596Z,44.70
2018-10-17T08:05:17.072Z,44.50
2018-10-17T08:07:49.523Z,44.20
2018-10-17T08:10:25.495Z,44.20
2018-10-17T08:12:53.977Z,44.30
2018-10-17T08:15:22.665Z,44.30
2018-10-17T08:17:51.390Z,44.30
2018-10-17T08:20:19.889Z,44.50
2018-10-17T08:22:47.812Z,44.40
2018-10-17T08:25:16.552Z,44.20
2018-10-17T08:27:46.856Z,44.20
2018-10-17T08:30:14.736Z,44.10
2018-10-17T08:32:42.395Z,44.00
2018-10-17T08:35:10.301Z,43.90
2018-10-17T08:37:39.101Z,43.40
2018-10-17T08:40:06.691Z,44.10
2018-10-17T08:42:34.815Z,43.40
2018-10-17T08:45:04.165Z,42.80
2018-10-17T08:47:32.258Z,42.40
2018-10-17T08:50:01.309Z,42.40
2018-10-17T08:52:29.168Z,42.00
2018-10-17T08:54:58.416Z,42.20
2018-10-17T08:57:26.361Z,42.40
2018-10-17T08:59:58.945Z,42.50
2018-10-17T09:02:29.072Z,42.40
2018-10-17T09:04:57.338Z,42.20
2018-10-17T09:07:27.112Z,41.80
2018-10-17T09:09:55.344Z,41.80
2018-10-17T09:12:23.056Z,41.90
2018-10-17T09:14:51.675Z,41.80
2018-10-17T09:17:19.454Z,41.50
2018-10-17T09:19:48.039Z,41.50
2018-10-17T09:22:23.658Z,41.70
2018-10-17T09:24:52.147Z,41.40
2018-10-17T09:27:25.013Z,41.30
2018-10-17T09:32:32.765Z,41.10
2018-10-17T09:35:01.115Z,41.00
2018-10-17T09:37:30.123Z,41.10
2018-10-17T09:39:57.805Z,40.50
2018-10-17T09:42:26.102Z,40.80
2018-10-17T09:47:35.947Z,40.40
2018-10-17T09:50:11.426Z,40.40
2018-10-17T09:52:39.646Z,40.50
2018-10-17T09:55:16.888Z,40.50
2018-10-17T09:57:45.326Z,40.60
2018-10-17T10:00:19.018Z,40.10
2018-10-17T10:02:47.863Z,39.80
2018-10-17T10:05:15.601Z,39.70
2018-10-17T10:07:43.667Z,39.90
2018-10-17T10:10:11.491Z,40.10
2018-10-17T10:12:39.494Z,39.80
2018-10-17T10:15:07.281Z,38.90
2018-10-17T10:17:35.494Z,38.80
2018-10-17T10:20:03.555Z,39.10
2018-10-17T10:22:31.661Z,38.90
2018-10-17T10:25:00.812Z,38.50
2018-10-17T10:27:28.769Z,38.80
2018-10-17T10:29:57.674Z,38.30
2018-10-17T10:32:25.637Z,38.40
2018-10-17T10:34:56.875Z,38.00
2018-10-17T10:37:25.420Z,38.40
2018-10-17T10:39:53.602Z,38.30
2018-10-17T10:42:32.372Z,38.30
2018-10-17T10:45:11.002Z,37.70
2018-10-17T10:47:38.663Z,37.80
2018-10-17T10:50:07.662Z,38.30
2018-10-17T10:52:41.688Z,37.70
2018-10-17T10:55:16.426Z,38.20
2018-10-17T10:57:44.158Z,37.20
2018-10-17T11:00:12.226Z,37.60
2018-10-17T11:02:40.344Z,37.80
2018-10-17T11:05:08.674Z,37.90
2018-10-17T11:07:43.286Z,37.80
2018-10-17T11:10:20.009Z,37.40
2018-10-17T11:12:48.054Z,37.80
2018-10-17T11:15:16.887Z,37.20
2018-10-17T11:17:44.840Z,37.00
2018-10-17T11:20:12.719Z,37.20
2018-10-17T11:22:41.906Z,37.10
2018-10-17T11:25:09.987Z,36.40
2018-10-17T11:27:37.977Z,36.00
2018-10-17T11:30:09.640Z,36.40
2018-10-17T11:32:38.230Z,35.80
2018-10-17T11:35:08.188Z,35.00
2018-10-17T11:37:36.250Z,34.30
2018-10-17T11:40:06.938Z,34.30
2018-10-17T11:42:35.248Z,34.00
2018-10-17T11:45:03.226Z,34.60
2018-10-17T11:47:31.286Z,33.60
2018-10-17T11:49:58.933Z,33.70
2018-10-17T11:52:27.289Z,34.20
2018-10-17T11:54:55.124Z,34.20
2018-10-17T11:57:23.359Z,32.60
2018-10-17T11:59:51.536Z,32.90
2018-10-17T12:02:21.120Z,32.20
2018-10-17T12:04:49.276Z,32.30
2018-10-17T12:07:17.634Z,32.30
2018-10-17T12:09:49.981Z,32.30
2018-10-17T12:12:18.069Z,32.40
2018-10-17T12:14:48.464Z,31.20
2018-10-17T12:17:18.144Z,30.60
2018-10-17T12:19:46.320Z,31.40
2018-10-17T12:22:14.463Z,30.80
2018-10-17T12:24:43.720Z,29.80
2018-10-17T12:27:11.643Z,28.10
2018-10-17T12:29:39.768Z,29.00
2018-10-17T12:32:07.894Z,27.50
2018-10-17T12:34:43.342Z,28.10
2018-10-17T12:37:11.949Z,27.80
2018-10-17T12:39:40.194Z,27.60
2018-10-17T12:42:13.911Z,28.00
2018-10-17T12:44:55.412Z,28.00
2018-10-17T12:47:23.734Z,27.50
2018-10-17T12:49:52.578Z,27.70
2018-10-17T12:52:31.780Z,27.70
2018-10-17T12:55:07.329Z,27.50
2018-10-17T12:57:35.378Z,28.10
2018-10-17T13:00:03.681Z,28.40
2018-10-17T13:02:31.603Z,28.00
2018-10-17T13:04:59.371Z,28.10
2018-10-17T13:07:27.720Z,28.10
2018-10-17T13:09:55.591Z,27.10
2018-10-17T13:12:23.464Z,27.60
2018-10-17T13:14:52.331Z,27.10
2018-10-17T13:17:20.598Z,27.40
2018-10-17T13:19:48.391Z,27.60
2018-10-17T13:22:16.558Z,27.70
2018-10-17T13:24:44.344Z,26.10
2018-10-17T13:27:12.302Z,26.50
2018-10-17T13:29:40.239Z,26.60
2018-10-17T13:32:07.969Z,26.70
2018-10-17T13:34:36.068Z,27.00
2018-10-17T13:37:09.183Z,27.00
2018-10-17T13:42:34.748Z,27.50
2018-10-17T13:45:02.616Z,27.90
2018-10-17T13:47:31.103Z,27.60
2018-10-17T13:49:58.839Z,27.20
2018-10-17T13:52:26.994Z,27.40
2018-10-17T13:54:55.272Z,27.10
2018-10-17T13:57:28.986Z,27.00
2018-10-17T13:59:57.349Z,27.20
2018-10-17T14:02:25.324Z,27.50
2018-10-17T14:04:53.734Z,27.70
2018-10-17T14:07:22.021Z,27.50
2018-10-17T14:09:49.756Z,27.10
2018-10-17T14:12:18.361Z,27.40
2018-10-17T14:14:46.666Z,27.00
2018-10-17T14:17:14.507Z,28.10
2018-10-17T14:19:42.528Z,27.40
2018-10-17T14:22:29.122Z,27.00
2018-10-17T14:24:56.986Z,27.20
2018-10-17T14:27:26.394Z,26.60
2018-10-17T14:29:54.541Z,27.20
2018-10-17T14:32:23.752Z,27.20
2018-10-17T14:34:51.954Z,27.20
2018-10-17T14:37:19.881Z,26.10
2018-10-17T14:39:47.700Z,26.70
2018-10-17T14:42:15.692Z,26.50
2018-10-17T14:44:43.639Z,26.50
2018-10-17T14:47:12.752Z,26.20
2018-10-17T14:49:40.548Z,26.70
2018-10-17T14:55:04.475Z,26.50
2018-10-17T14:57:32.335Z,26.70
2018-10-17T15:00:09.158Z,26.90
2018-10-17T15:02:37.347Z,26.70
2018-10-17T15:05:05.532Z,26.80
2018-10-17T15:07:33.215Z,26.40
2018-10-17T15:10:01.038Z,26.60
2018-10-17T15:12:28.855Z,26.50
2018-10-17T15:14:56.721Z,26.40
2018-10-17T15:17:24.607Z,26.10
2018-10-17T15:19:52.553Z,26.30
2018-10-17T15:22:20.370Z,26.60
2018-10-17T15:24:52.650Z,26.60
2018-10-17T15:27:21.121Z,26.60
2018-10-17T15:29:48.997Z,26.70
2018-10-17T15:32:16.831Z,26.50
2018-10-17T15:34:45.014Z,27.20
2018-10-17T15:37:12.759Z,26.70
2018-10-17T15:39:40.564Z,27.10
2018-10-17T15:42:08.318Z,27.00
2018-10-17T15:44:36.101Z,27.00
2018-10-17T15:47:04.057Z,27.50
2018-10-17T15:49:33.293Z,27.60
2018-10-17T15:52:02.401Z,27.90
2018-10-17T15:54:30.219Z,28.00
2018-10-17T15:56:58.683Z,28.00
2018-10-17T15:59:32.563Z,28.20
2018-10-17T16:02:00.598Z,28.40
2018-10-17T16:04:29.836Z,28.60
2018-10-17T16:06:59.878Z,28.60
2018-10-17T16:09:28.194Z,28.50
2018-10-17T16:11:57.307Z,28.60
2018-10-17T16:14:25.184Z,28.80
2018-10-17T16:16:55.358Z,28.60
2018-10-17T16:19:29.354Z,28.80
2018-10-17T16:21:58.099Z,29.10
2018-10-17T16:24:26.683Z,29.30
2018-10-17T16:26:54.710Z,29.20
2018-10-17T16:29:22.701Z,29.30
2018-10-17T16:31:50.756Z,29.60
2018-10-17T16:34:20.179Z,29.80
2018-10-17T16:36:49.271Z,29.70
2018-10-17T16:39:16.997Z,29.90
2018-10-17T16:41:44.896Z,30.00
2018-10-17T16:44:12.986Z,30.00
2018-10-17T16:46:40.877Z,30.70
2018-10-17T16:49:08.647Z,30.40
2018-10-17T16:51:37.444Z,30.80
2018-10-17T16:54:05.351Z,31.00
2018-10-17T16:56:46.057Z,31.40
2018-10-17T16:59:14.205Z,31.20
2018-10-17T17:01:45.402Z,31.50
2018-10-17T17:04:20.388Z,31.30
2018-10-17T17:06:48.407Z,31.90
2018-10-17T17:09:16.640Z,31.40
2018-10-17T17:11:45.316Z,31.70
2018-10-17T17:14:14.170Z,32.00
2018-10-17T17:16:46.013Z,32.30
2018-10-17T17:19:20.380Z,32.30
2018-10-17T17:21:49.585Z,32.20
2018-10-17T17:24:22.378Z,32.20
2018-10-17T17:26:51.220Z,32.20
2018-10-17T17:29:19.425Z,32.20
2018-10-17T17:31:49.583Z,32.20
2018-10-17T17:34:18.913Z,32.90
2018-10-17T17:36:48.072Z,32.90
2018-10-17T17:39:16.303Z,32.90
2018-10-17T17:41:44.680Z,33.10
2018-10-17T17:44:29.567Z,33.10
2018-10-17T17:46:58.400Z,33.30
2018-10-17T17:49:29.341Z,33.30
2018-10-17T17:51:58.364Z,33.50
2018-10-17T17:54:26.621Z,33.70
2018-10-17T17:56:57.292Z,33.60
2018-10-17T17:59:28.241Z,33.60
2018-10-17T18:02:02.219Z,33.80
2018-10-17T18:04:34.123Z,33.90
2018-10-17T18:09:41.516Z,34.00
2018-10-17T18:12:11.696Z,34.10
2018-10-17T18:14:39.982Z,34.20
2018-10-17T18:17:14.129Z,34.40
2018-10-17T18:19:47.265Z,34.50
2018-10-17T18:22:15.078Z,34.50
2018-10-17T18:24:42.996Z,34.70
2018-10-17T18:27:14.605Z,34.70
2018-10-17T18:29:42.544Z,34.70
2018-10-17T18:32:10.409Z,34.70
2018-10-17T18:34:38.161Z,34.70
2018-10-17T18:37:06.275Z,34.70
2018-10-17T18:39:37.887Z,34.80
2018-10-17T18:42:06.178Z,35.00
2018-10-17T18:44:39.612Z,35.40
2018-10-17T18:47:13.084Z,35.00
2018-10-17T18:49:41.073Z,35.00
2018-10-17T18:52:15.942Z,35.00
2018-10-17T18:54:44.429Z,35.40
2018-10-17T18:57:12.482Z,35.20
2018-10-17T18:59:41.619Z,35.20
2018-10-17T19:04:46.754Z,35.40
2018-10-17T19:07:20.248Z,35.50
2018-10-17T19:09:49.901Z,35.50
2018-10-17T19:12:24.122Z,35.40
2018-10-17T19:14:58.802Z,35.40
2018-10-17T19:22:53.667Z,35.80
2018-10-17T19:25:23.469Z,35.80
2018-10-17T19:27:53.092Z,36.30
2018-10-17T19:30:34.763Z,36.50
2018-10-17T19:33:09.496Z,36.60
2018-10-17T19:35:46.464Z,36.80
2018-10-17T19:38:14.399Z,36.60
2018-10-17T19:40:42.346Z,36.70
2018-10-17T19:43:10.313Z,36.70
2018-10-17T19:45:42.495Z,36.50
2018-10-17T19:51:10.263Z,36.70
2018-10-17T19:57:01.658Z,36.80
2018-10-17T19:59:29.635Z,36.90
2018-10-17T20:01:58.681Z,36.70
2018-10-17T20:04:45.497Z,36.80
2018-10-17T20:07:13.425Z,37.00
2018-10-17T20:09:41.454Z,36.80
2018-10-17T20:12:10.778Z,36.80
2018-10-17T20:14:44.393Z,36.80
2018-10-17T20:17:14.446Z,37.00
2018-10-17T20:19:43.031Z,36.80
2018-10-17T20:22:23.617Z,37.00
2018-10-17T20:28:33.399Z,36.90
2018-10-17T20:31:02.702Z,37.10
2018-10-17T20:33:41.197Z,37.20
2018-10-17T20:36:10.624Z,37.30
2018-10-17T20:38:42.257Z,37.30
2018-10-17T20:44:06.912Z,37.30
2018-10-17T20:47:39.065Z,37.10
2018-10-17T20:53:14.742Z,37.20
2018-10-17T20:58:28.152Z,37.20
2018-10-17T21:04:08.598Z,37.20
2018-10-17T21:06:37.321Z,37.50
2018-10-17T21:09:14.169Z,37.30
2018-10-17T21:11:49.003Z,37.20
2018-10-17T21:14:25.614Z,37.20
2018-10-17T21:16:54.264Z,37.30
2018-10-17T21:19:22.802Z,37.30
2018-10-17T21:21:52.628Z,37.40
2018-10-17T21:24:27.211Z,37.50
2018-10-17T21:30:01.881Z,37.40
2018-10-17T21:32:55.005Z,37.50
2018-10-17T21:36:33.821Z,37.50
2018-10-17T21:39:03.804Z,37.20
2018-10-17T21:41:54.716Z,37.40
2018-10-17T21:44:24.058Z,37.30
2018-10-17T21:46:53.174Z,37.20
2018-10-17T21:49:21.136Z,37.40
2018-10-17T21:54:56.405Z,37.40
2018-10-17T22:00:02.702Z,37.50
2018-10-17T22:02:34.059Z,37.20
2018-10-17T22:05:02.074Z,37.20
2018-10-17T22:07:31.071Z,37.20
2018-10-17T22:10:05.605Z,37.30
2018-10-17T22:12:35.617Z,37.30
2018-10-17T22:15:05.942Z,37.40
2018-10-17T22:17:45.232Z,37.60
2018-10-17T22:23:23.008Z,37.50
2018-10-17T22:25:51.370Z,37.40
2018-10-17T22:28:20.892Z,37.50
2018-10-17T22:30:49.769Z,37.50
2018-10-17T22:33:26.350Z,38.30
2018-10-17T22:35:54.304Z,37.40
2018-10-17T22:38:27.097Z,37.60
2018-10-17T22:40:55.680Z,37.50
2018-10-17T22:43:45.978Z,37.50
2018-10-17T22:46:14.104Z,37.50
2018-10-17T22:48:42.947Z,37.50
2018-10-17T22:51:12.800Z,37.40
2018-10-17T22:53:40.882Z,37.50
2018-10-17T22:56:27.337Z,37.60
2018-10-17T23:05:09.816Z,37.90
2018-10-17T23:07:37.646Z,37.80
2018-10-17T23:10:05.580Z,37.90
2018-10-17T23:12:34.548Z,39.30
2018-10-17T23:15:03.557Z,39.10
2018-10-17T23:17:31.518Z,38.80
2018-10-17T23:20:00.591Z,39.10
2018-10-17T23:22:29.886Z,39.20
2018-10-17T23:24:59.076Z,39.40
2018-10-17T23:27:27.003Z,39.50
2018-10-17T23:29:54.810Z,39.50
2018-10-17T23:32:22.664Z,38.90
2018-10-17T23:35:12.311Z,39.00
2018-10-17T23:37:40.356Z,39.00
2018-10-17T23:40:14.000Z,39.30
2018-10-17T23:42:42.496Z,39.30
2018-10-17T23:45:12.747Z,39.50
2018-10-17T23:47:42.089Z,39.20
2018-10-17T23:50:10.082Z,39.40
2018-10-17T23:52:38.946Z,39.20
2018-10-17T23:55:29.046Z,39.30
2018-10-17T23:58:03.306Z,39.40
